createdAt,value
2023-03-28T00:01:12.091Z,8.50
2023-03-28T00:03:41.230Z,9.30
2023-03-28T00:06:12.281Z,8.80
2023-03-28T00:08:41.000Z,8.20
2023-03-28T00:11:16.227Z,8.30
2023-03-28T00:13:45.708Z,8.20
2023-03-28T00:16:14.491Z,8.10
2023-03-28T00:18:43.308Z,7.80
2023-03-28T00:21:27.374Z,8.20
2023-03-28T00:23:58.154Z,7.50
2023-03-28T00:26:27.165Z,7.50
2023-03-28T00:28:56.987Z,7.30
2023-03-28T00:31:26.742Z,7.20
2023-03-28T00:33:55.521Z,7.60
2023-03-28T00:36:26.897Z,8.40
2023-03-28T00:39:01.394Z,7.70
2023-03-28T00:41:31.408Z,6.90
2023-03-28T00:44:01.438Z,6.70
2023-03-28T00:46:35.593Z,6.60
2023-03-28T00:49:26.440Z,6.40
2023-03-28T00:52:01.680Z,6.00
2023-03-28T00:54:34.329Z,5.70
2023-03-28T00:57:03.615Z,6.50
2023-03-28T00:59:34.444Z,6.90
2023-03-28T01:02:02.652Z,6.50
2023-03-28T01:04:46.678Z,6.20
2023-03-28T01:07:16.588Z,6.10
2023-03-28T01:09:45.749Z,7.00
2023-03-28T01:12:17.243Z,6.70
2023-03-28T01:14:45.927Z,7.20
2023-03-28T01:17:16.176Z,8.00
2023-03-28T01:20:09.401Z,7.60
2023-03-28T01:23:15.635Z,7.30
2023-03-28T01:26:03.497Z,6.00
2023-03-28T01:29:01.680Z,6.00
2023-03-28T01:32:07.128Z,6.00
2023-03-28T01:35:07.957Z,5.40
2023-03-28T01:37:55.599Z,5.50
2023-03-28T01:40:42.633Z,5.10
2023-03-28T01:43:36.582Z,5.60
2023-03-28T01:46:33.154Z,5.90
2023-03-28T01:49:12.293Z,5.60
2023-03-28T01:52:00.036Z,5.80
2023-03-28T01:54:47.507Z,5.60
2023-03-28T01:57:19.917Z,5.20
2023-03-28T02:00:06.997Z,5.60
2023-03-28T02:03:03.828Z,5.80
2023-03-28T02:05:39.614Z,4.80
2023-03-28T02:08:14.428Z,5.00
2023-03-28T02:11:11.473Z,5.30
2023-03-28T02:14:02.600Z,5.20
2023-03-28T02:16:54.324Z,5.00
2023-03-28T02:19:41.576Z,5.80
2023-03-28T02:22:16.543Z,5.40
2023-03-28T02:25:02.563Z,5.60
2023-03-28T02:27:51.423Z,6.00
2023-03-28T02:30:24.002Z,6.10
2023-03-28T02:32:52.606Z,6.60
2023-03-28T02:35:26.953Z,6.80
2023-03-28T02:38:04.298Z,6.70
2023-03-28T02:40:53.155Z,6.80
2023-03-28T02:43:47.332Z,7.60
2023-03-28T02:46:18.458Z,6.70
2023-03-28T02:49:26.688Z,7.90
2023-03-28T02:52:15.056Z,7.10
2023-03-28T02:54:51.726Z,7.10
2023-03-28T02:57:50.086Z,6.80
2023-03-28T03:00:20.040Z,6.50
2023-03-28T03:02:51.850Z,6.80
2023-03-28T03:05:21.781Z,7.00
2023-03-28T03:07:51.677Z,7.20
2023-03-28T03:10:22.142Z,7.00
2023-03-28T03:12:50.646Z,6.60
2023-03-28T03:15:19.032Z,7.20
2023-03-28T03:17:49.949Z,6.70
2023-03-28T03:20:26.290Z,7.30
2023-03-28T03:22:55.580Z,6.40
2023-03-28T03:25:23.779Z,6.50
2023-03-28T03:28:18.877Z,5.80
2023-03-28T03:30:47.677Z,6.40
2023-03-28T03:33:26.498Z,6.20
2023-03-28T03:35:59.247Z,5.60
2023-03-28T03:38:27.628Z,6.20
2023-03-28T03:40:56.038Z,5.30
2023-03-28T03:43:24.380Z,6.40
2023-03-28T03:45:52.573Z,6.70
2023-03-28T03:48:20.907Z,5.70
2023-03-28T03:50:49.517Z,6.60
2023-03-28T03:53:17.732Z,6.00
2023-03-28T03:55:53.880Z,6.40
2023-03-28T03:58:22.228Z,6.70
2023-03-28T04:00:50.715Z,7.00
2023-03-28T04:03:38.887Z,6.50
2023-03-28T04:06:07.739Z,7.10
2023-03-28T04:08:36.373Z,6.70
2023-03-28T04:11:05.112Z,6.90
2023-03-28T04:13:39.125Z,6.90
2023-03-28T04:16:08.524Z,7.70
2023-03-28T04:18:51.018Z,7.60
2023-03-28T04:21:28.551Z,7.80
2023-03-28T04:23:57.514Z,7.30
2023-03-28T04:26:38.256Z,7.00
2023-03-28T04:29:10.136Z,7.20
2023-03-28T04:31:40.107Z,7.20
2023-03-28T04:34:40.282Z,7.30
2023-03-28T04:37:10.762Z,7.50
2023-03-28T04:40:01.865Z,7.50
2023-03-28T04:42:48.171Z,7.40
2023-03-28T04:45:20.549Z,7.10
2023-03-28T04:47:49.398Z,6.40
2023-03-28T04:50:19.439Z,6.50
2023-03-28T04:52:47.892Z,6.20
2023-03-28T04:55:17.411Z,7.10
2023-03-28T04:57:46.738Z,5.90
2023-03-28T05:00:17.355Z,6.40
2023-03-28T05:03:04.928Z,7.20
2023-03-28T05:05:42.138Z,7.40
2023-03-28T05:08:15.356Z,8.10
2023-03-28T05:10:46.064Z,9.00
2023-03-28T05:13:15.141Z,7.70
2023-03-28T05:15:48.656Z,8.50
2023-03-28T05:18:42.932Z,8.50
2023-03-28T05:21:11.097Z,9.30
2023-03-28T05:23:39.306Z,8.60
2023-03-28T05:26:14.844Z,10.60
2023-03-28T05:28:43.617Z,11.20
2023-03-28T05:31:12.187Z,13.40
2023-03-28T05:33:40.565Z,12.10
2023-03-28T05:36:09.418Z,11.30
2023-03-28T05:38:37.852Z,9.90
2023-03-28T05:41:11.986Z,10.20
2023-03-28T05:43:40.428Z,8.80
2023-03-28T05:46:09.027Z,8.70
2023-03-28T05:48:43.938Z,8.30
2023-03-28T05:51:18.986Z,9.40
2023-03-28T05:53:47.286Z,8.60
2023-03-28T05:56:15.872Z,8.20
2023-03-28T05:58:44.012Z,7.80
2023-03-28T06:01:13.144Z,8.40
2023-03-28T06:03:42.754Z,7.30
2023-03-28T06:06:12.337Z,8.40
2023-03-28T06:08:40.942Z,7.90
2023-03-28T06:11:09.900Z,7.00
2023-03-28T06:14:06.850Z,6.90
2023-03-28T06:16:36.151Z,6.60
2023-03-28T06:19:17.397Z,7.70
2023-03-28T06:21:50.718Z,8.00
2023-03-28T06:24:18.892Z,8.10
2023-03-28T06:26:47.377Z,8.00
2023-03-28T06:29:19.805Z,9.00
2023-03-28T06:31:50.122Z,8.20
2023-03-28T06:34:19.884Z,9.60
2023-03-28T06:36:53.685Z,10.50
2023-03-28T06:39:21.756Z,10.90
2023-03-28T06:41:51.083Z,10.00
2023-03-28T06:44:19.944Z,9.80
2023-03-28T06:47:14.157Z,9.60
2023-03-28T06:49:42.818Z,10.00
2023-03-28T06:52:25.022Z,8.90
2023-03-28T06:54:53.293Z,10.00
2023-03-28T06:57:21.514Z,9.70
2023-03-28T06:59:51.800Z,10.60
2023-03-28T07:02:23.352Z,8.80
2023-03-28T07:04:52.542Z,8.70
2023-03-28T07:07:22.430Z,8.10
2023-03-28T07:09:52.408Z,7.30
2023-03-28T07:12:21.045Z,7.10
2023-03-28T07:14:49.261Z,8.40
2023-03-28T07:17:17.207Z,8.40
2023-03-28T07:19:46.293Z,8.80
2023-03-28T07:22:14.486Z,8.90
2023-03-28T07:24:43.362Z,8.90
2023-03-28T07:27:16.487Z,8.40
2023-03-28T07:29:46.909Z,8.20
2023-03-28T07:32:16.330Z,8.50
2023-03-28T07:34:46.419Z,8.10
2023-03-28T07:37:19.978Z,7.90
2023-03-28T07:39:54.854Z,7.80
2023-03-28T07:42:24.245Z,8.10
2023-03-28T07:44:52.227Z,8.20
2023-03-28T07:47:20.817Z,8.10
2023-03-28T07:49:48.863Z,8.00
2023-03-28T07:52:17.846Z,8.30
2023-03-28T07:54:45.881Z,7.60
2023-03-28T07:57:14.023Z,6.80
2023-03-28T08:00:00.896Z,7.50
2023-03-28T08:02:29.438Z,7.70
2023-03-28T08:04:57.869Z,7.10
2023-03-28T08:07:28.509Z,6.90
2023-03-28T08:09:58.837Z,7.30
2023-03-28T08:12:30.550Z,6.00
2023-03-28T08:14:58.946Z,6.10
2023-03-28T08:17:27.087Z,6.00
2023-03-28T08:19:56.628Z,5.90
2023-03-28T08:22:26.355Z,6.50
2023-03-28T08:25:13.141Z,6.10
2023-03-28T08:27:41.527Z,6.80
2023-03-28T08:30:13.243Z,6.10
2023-03-28T08:32:51.448Z,6.10
2023-03-28T08:35:20.135Z,6.80
2023-03-28T08:37:51.539Z,9.00
2023-03-28T08:40:21.182Z,6.20
2023-03-28T08:42:59.205Z,6.10
2023-03-28T08:45:50.672Z,6.30
2023-03-28T08:48:39.149Z,6.90
2023-03-28T08:51:32.369Z,6.50
2023-03-28T08:54:11.262Z,5.70
2023-03-28T08:56:45.719Z,5.10
2023-03-28T08:59:16.791Z,5.20
2023-03-28T09:01:45.592Z,4.60
2023-03-28T09:04:27.414Z,4.70
2023-03-28T09:07:18.542Z,4.30
2023-03-28T09:09:56.089Z,3.90
2023-03-28T09:12:47.662Z,4.40
2023-03-28T09:15:38.172Z,4.50
2023-03-28T09:18:25.275Z,7.40
2023-03-28T09:21:19.359Z,7.40
2023-03-28T09:24:36.479Z,4.60
2023-03-28T09:27:34.860Z,4.50
2023-03-28T09:30:19.039Z,3.90
2023-03-28T09:32:47.712Z,4.10
2023-03-28T09:35:19.649Z,3.40
2023-03-28T09:38:00.671Z,3.60
2023-03-28T09:40:31.071Z,3.60
2023-03-28T09:43:24.134Z,3.30
2023-03-28T09:46:15.018Z,4.30
2023-03-28T09:49:24.157Z,5.20
2023-03-28T09:52:21.860Z,4.80
2023-03-28T09:54:51.321Z,4.00
2023-03-28T09:57:20.974Z,4.50
2023-03-28T09:59:58.532Z,4.80
2023-03-28T10:02:32.794Z,5.00
2023-03-28T10:05:06.352Z,6.10
2023-03-28T10:07:43.175Z,6.10
2023-03-28T10:10:31.761Z,7.80
2023-03-28T10:13:05.022Z,8.20
2023-03-28T10:15:50.425Z,9.00
2023-03-28T10:18:57.248Z,10.00
2023-03-28T10:21:48.945Z,9.00
2023-03-28T10:24:22.332Z,7.90
2023-03-28T10:27:24.444Z,9.10
2023-03-28T10:29:56.667Z,9.80
2023-03-28T10:32:31.300Z,8.60
2023-03-28T10:35:28.087Z,9.80
2023-03-28T10:38:16.584Z,9.80
2023-03-28T10:41:24.602Z,8.90
2023-03-28T10:44:31.319Z,7.90
2023-03-28T10:47:07.877Z,7.60
2023-03-28T10:49:51.357Z,7.40
2023-03-28T10:53:18.411Z,7.50
2023-03-28T10:56:11.899Z,6.30
2023-03-28T10:59:02.753Z,6.00
2023-03-28T11:01:46.413Z,6.60
2023-03-28T11:04:26.609Z,4.70
2023-03-28T11:07:02.743Z,4.40
2023-03-28T11:09:56.677Z,4.20
2023-03-28T11:13:22.422Z,4.00
2023-03-28T11:16:16.192Z,4.00
2023-03-28T11:19:11.538Z,4.40
2023-03-28T11:22:16.054Z,3.80
2023-03-28T11:24:53.340Z,4.00
2023-03-28T11:28:00.985Z,3.20
2023-03-28T11:30:46.767Z,3.50
2023-03-28T11:33:39.040Z,3.10
2023-03-28T11:36:18.870Z,3.60
2023-03-28T11:39:05.752Z,3.10
2023-03-28T11:41:38.737Z,2.70
2023-03-28T11:46:57.889Z,2.90
2023-03-28T11:49:35.479Z,2.60
2023-03-28T11:52:09.158Z,2.40
2023-03-28T11:54:45.765Z,2.50
2023-03-28T11:57:29.933Z,3.10
2023-03-28T12:00:31.900Z,2.70
2023-03-28T12:03:42.689Z,3.10
2023-03-28T12:06:22.601Z,2.20
2023-03-28T12:09:13.110Z,2.30
2023-03-28T12:11:53.535Z,2.40
2023-03-28T12:14:35.150Z,2.50
2023-03-28T12:17:44.758Z,2.60
2023-03-28T12:20:28.175Z,2.10
2023-03-28T12:23:01.752Z,2.30
2023-03-28T12:26:22.914Z,2.00
2023-03-28T12:28:59.081Z,2.10
2023-03-28T12:34:19.702Z,2.20
2023-03-28T12:37:12.591Z,2.40
2023-03-28T12:39:56.000Z,2.30
2023-03-28T12:42:28.784Z,2.20
2023-03-28T12:45:06.833Z,2.10
2023-03-28T12:47:43.502Z,2.00
2023-03-28T12:50:22.958Z,2.10
2023-03-28T12:52:53.317Z,2.40
2023-03-28T12:55:31.690Z,2.30
2023-03-28T12:58:21.836Z,2.90
2023-03-28T13:01:22.308Z,2.70
2023-03-28T13:04:29.186Z,2.40
2023-03-28T13:07:34.160Z,2.50
2023-03-28T13:10:27.184Z,1.90
2023-03-28T13:13:36.577Z,2.40
2023-03-28T13:16:14.255Z,2.20
2023-03-28T13:19:06.972Z,2.00
2023-03-28T13:21:41.933Z,2.20
2023-03-28T13:24:39.935Z,1.70
2023-03-28T13:27:28.453Z,1.80
2023-03-28T13:30:17.265Z,2.10
2023-03-28T13:41:35.742Z,6.70
2023-03-28T13:44:10.418Z,3.70
2023-03-28T13:46:42.577Z,2.20
2023-03-28T13:49:10.915Z,2.20
2023-03-28T13:51:58.941Z,2.40
2023-03-28T13:54:38.720Z,2.30
2023-03-28T13:57:14.915Z,5.00
2023-03-28T14:00:01.621Z,3.90
2023-03-28T14:02:50.619Z,3.40
2023-03-28T14:05:21.331Z,2.90
2023-03-28T14:07:53.555Z,2.40
2023-03-28T14:10:31.843Z,4.90
2023-03-28T14:13:04.563Z,3.70
2023-03-28T14:15:39.953Z,3.10
2023-03-28T14:18:15.925Z,3.40
2023-03-28T14:20:46.975Z,2.80
2023-03-28T14:23:24.101Z,3.40
2023-03-28T14:25:52.117Z,2.90
2023-03-28T14:28:20.154Z,2.30
2023-03-28T14:30:48.586Z,2.30
2023-03-28T14:33:21.224Z,2.50
2023-03-28T14:36:01.964Z,2.30
2023-03-28T14:38:39.710Z,2.10
2023-03-28T14:41:21.692Z,2.10
2023-03-28T14:43:55.975Z,2.30
2023-03-28T14:46:28.263Z,2.80
2023-03-28T14:48:59.626Z,2.30
2023-03-28T14:51:28.388Z,2.60
2023-03-28T14:53:56.937Z,2.50
2023-03-28T14:56:29.882Z,3.00
2023-03-28T14:59:02.739Z,2.90
2023-03-28T15:01:33.993Z,5.70
2023-03-28T15:04:07.547Z,9.30
2023-03-28T15:06:36.297Z,6.20
2023-03-28T15:09:22.800Z,3.10
2023-03-28T15:11:51.758Z,2.60
2023-03-28T15:14:39.678Z,3.10
2023-03-28T15:21:24.477Z,4.10
2023-03-28T15:23:58.155Z,13.40
2023-03-28T15:26:35.104Z,4.20
2023-03-28T15:29:08.817Z,3.50
2023-03-28T15:31:40.981Z,7.10
2023-03-28T15:34:23.830Z,4.80
2023-03-28T15:36:58.903Z,3.90
2023-03-28T15:39:31.996Z,3.10
2023-03-28T15:42:01.930Z,3.10
2023-03-28T15:44:35.969Z,2.70
2023-03-28T15:47:15.025Z,2.90
2023-03-28T15:54:05.628Z,3.00
2023-03-28T15:56:37.155Z,3.40
2023-03-28T15:59:14.618Z,4.50
2023-03-28T16:01:42.611Z,3.30
2023-03-28T16:04:26.093Z,3.10
2023-03-28T16:07:13.682Z,2.60
2023-03-28T16:09:43.286Z,2.60
2023-03-28T16:12:14.143Z,2.80
2023-03-28T16:14:53.917Z,2.70
2023-03-28T16:17:36.719Z,2.80
2023-03-28T16:20:18.576Z,3.10
2023-03-28T16:22:47.508Z,1.80
2023-03-28T16:25:15.625Z,2.30
2023-03-28T16:27:43.585Z,2.40
2023-03-28T16:30:19.682Z,2.90
2023-03-28T16:32:47.759Z,2.60
2023-03-28T16:35:16.870Z,4.80
2023-03-28T16:37:44.997Z,4.10
2023-03-28T16:40:14.840Z,4.30
2023-03-28T16:42:44.894Z,4.40
2023-03-28T16:45:14.290Z,5.70
2023-03-28T16:47:42.525Z,3.20
2023-03-28T16:50:11.001Z,3.40
2023-03-28T16:52:40.380Z,6.70
2023-03-28T16:55:11.279Z,8.10
2023-03-28T16:57:39.496Z,5.10
2023-03-28T17:00:10.896Z,4.00
2023-03-28T17:02:39.483Z,4.40
2023-03-28T17:05:08.079Z,4.20
2023-03-28T17:07:37.002Z,4.00
2023-03-28T17:10:05.951Z,4.10
2023-03-28T17:12:35.929Z,4.00
2023-03-28T17:15:06.938Z,4.40
2023-03-28T17:17:37.909Z,5.00
2023-03-28T17:20:09.956Z,4.60
2023-03-28T17:22:42.941Z,4.20
2023-03-28T17:25:13.932Z,3.50
2023-03-28T17:27:44.952Z,4.00
2023-03-28T17:30:19.002Z,8.90
2023-03-28T17:32:49.225Z,8.30
2023-03-28T17:35:19.926Z,5.70
2023-03-28T17:37:52.942Z,4.40
2023-03-28T17:40:24.255Z,4.90
2023-03-28T17:42:55.920Z,4.10
2023-03-28T17:45:27.976Z,3.80
2023-03-28T17:47:58.988Z,4.40
2023-03-28T17:50:30.948Z,3.80
2023-03-28T17:53:02.952Z,3.80
2023-03-28T17:55:34.993Z,3.80
2023-03-28T17:58:06.937Z,2.90
2023-03-28T18:00:38.967Z,2.80
2023-03-28T18:03:11.174Z,3.10
2023-03-28T18:06:01.253Z,3.60
2023-03-28T18:08:32.977Z,3.10
2023-03-28T18:11:07.016Z,3.30
2023-03-28T18:13:40.026Z,3.40
2023-03-28T18:23:48.474Z,8.30
2023-03-28T18:26:16.887Z,4.50
2023-03-28T18:28:45.278Z,4.50
2023-03-28T18:31:17.406Z,7.40
2023-03-28T18:33:46.103Z,4.60
2023-03-28T18:36:14.823Z,5.10
2023-03-28T18:38:44.270Z,6.20
2023-03-28T18:41:13.166Z,9.60
2023-03-28T18:43:42.724Z,6.50
2023-03-28T18:46:15.479Z,6.70
2023-03-28T18:48:45.445Z,6.30
2023-03-28T18:51:14.061Z,5.20
2023-03-28T18:53:42.152Z,4.90
2023-03-28T18:56:13.947Z,7.00
2023-03-28T18:58:51.250Z,5.40
2023-03-28T19:01:20.943Z,5.00
2023-03-28T19:03:50.953Z,4.70
2023-03-28T19:06:19.767Z,4.60
2023-03-28T19:08:48.801Z,4.20
2023-03-28T19:11:20.706Z,4.40
2023-03-28T19:13:51.710Z,4.90
2023-03-28T19:16:20.340Z,4.30
2023-03-28T19:21:38.526Z,4.60
2023-03-28T19:24:10.221Z,4.60
2023-03-28T19:26:42.910Z,4.70
2023-03-28T19:29:11.729Z,4.40
2023-03-28T19:31:41.959Z,4.50
2023-03-28T19:34:18.053Z,5.00
2023-03-28T19:36:47.615Z,5.80
2023-03-28T19:39:15.825Z,5.10
2023-03-28T19:41:43.993Z,9.20
2023-03-28T19:44:12.011Z,5.20
2023-03-28T19:54:15.524Z,5.40
2023-03-28T19:56:43.693Z,6.70
2023-03-28T19:59:11.851Z,4.70
2023-03-28T20:01:40.037Z,5.50
2023-03-28T20:04:08.474Z,10.90
2023-03-28T20:06:37.041Z,5.90
2023-03-28T20:09:05.441Z,5.40
2023-03-28T20:11:33.878Z,4.30
2023-03-28T20:14:01.918Z,4.70
2023-03-28T20:16:30.197Z,7.20
2023-03-28T20:18:58.451Z,5.10
2023-03-28T20:21:28.628Z,4.80
2023-03-28T20:23:58.605Z,4.00
2023-03-28T20:26:27.473Z,4.30
2023-03-28T20:28:59.430Z,4.60
2023-03-28T20:31:29.336Z,4.30
2023-03-28T20:33:59.669Z,4.20
2023-03-28T20:36:27.738Z,4.00
2023-03-28T20:38:56.124Z,4.20
2023-03-28T20:41:24.754Z,3.90
2023-03-28T20:43:53.441Z,3.90
2023-03-28T20:46:22.520Z,3.30
2023-03-28T20:48:56.992Z,4.30
2023-03-28T20:51:29.812Z,3.50
2023-03-28T20:54:00.385Z,4.00
2023-03-28T20:56:30.829Z,4.10
2023-03-28T20:58:59.932Z,3.70
2023-03-28T21:01:30.599Z,3.80
2023-03-28T21:04:02.019Z,4.10
2023-03-28T21:06:37.914Z,3.40
2023-03-28T21:09:10.159Z,3.60
2023-03-28T21:11:39.416Z,3.90
2023-03-28T21:14:10.663Z,3.50
2023-03-28T21:16:38.799Z,4.00
2023-03-28T21:19:07.137Z,4.90
2023-03-28T21:21:36.447Z,4.70
2023-03-28T21:24:05.676Z,4.20
2023-03-28T21:26:33.640Z,4.70
2023-03-28T21:29:01.708Z,4.10
2023-03-28T21:31:30.291Z,3.80
2023-03-28T21:33:59.670Z,4.00
2023-03-28T21:36:28.654Z,4.80
2023-03-28T21:38:57.489Z,4.40
2023-03-28T21:41:27.580Z,4.30
2023-03-28T21:43:57.090Z,4.30
2023-03-28T21:46:25.995Z,3.10
2023-03-28T21:48:54.327Z,4.40
2023-03-28T21:51:22.434Z,4.50
2023-03-28T21:53:50.980Z,3.50
2023-03-28T21:56:19.050Z,4.20
2023-03-28T21:58:47.441Z,3.60
2023-03-28T22:01:17.923Z,3.40
2023-03-28T22:03:47.957Z,3.10
2023-03-28T22:06:18.383Z,3.60
2023-03-28T22:08:52.551Z,2.90
2023-03-28T22:11:29.364Z,2.90
2023-03-28T22:14:02.661Z,2.70
2023-03-28T22:16:39.521Z,2.50
2023-03-28T22:21:37.798Z,2.60
2023-03-28T22:24:13.057Z,3.10
2023-03-28T22:26:45.172Z,2.70
2023-03-28T22:29:13.552Z,3.20
2023-03-28T22:31:42.231Z,2.90
2023-03-28T22:34:10.515Z,2.80
2023-03-28T22:36:38.577Z,3.60
2023-03-28T22:39:07.816Z,3.00
2023-03-28T22:41:35.845Z,3.20
2023-03-28T22:44:04.425Z,3.60
2023-03-28T22:46:34.233Z,3.50
2023-03-28T22:49:04.807Z,3.80
2023-03-28T22:51:32.982Z,3.80
2023-03-28T22:54:03.382Z,3.30
2023-03-28T22:56:31.464Z,3.40
2023-03-28T22:59:01.558Z,3.60
2023-03-28T23:01:30.209Z,3.50
2023-03-28T23:03:58.598Z,3.50
2023-03-28T23:06:28.161Z,3.30
2023-03-28T23:08:56.197Z,3.80
2023-03-28T23:11:24.674Z,4.30
2023-03-28T23:13:52.648Z,4.80
2023-03-28T23:16:21.295Z,4.20
2023-03-28T23:18:52.595Z,4.20
2023-03-28T23:21:20.749Z,5.40
2023-03-28T23:23:48.724Z,7.60
2023-03-28T23:26:16.993Z,5.10
2023-03-28T23:28:45.883Z,6.40
2023-03-28T23:31:14.199Z,6.40
2023-03-28T23:33:42.264Z,5.10
2023-03-28T23:36:10.335Z,4.70
2023-03-28T23:38:38.584Z,5.10
2023-03-28T23:41:07.985Z,4.60
2023-03-28T23:43:36.292Z,4.60
2023-03-28T23:46:04.569Z,4.80
2023-03-28T23:48:32.761Z,4.40
2023-03-28T23:51:04.574Z,4.20
2023-03-28T23:53:32.536Z,4.40
2023-03-28T23:56:00.499Z,4.50
2023-03-28T23:58:28.566Z,4.10
